Terminal Aerodrome Forecast
Issued by NWS

Current Version | Previous Version | Text Only | Print | Product List | Glossary On
Versions: 1 2 3 4 5 6 7 8 9 10 11 12 13 14 15 16 17 18 19 20
392
FTUS43 KDLH 290537
TAFBRD
TAF
KBRD 290537Z 2906/3006 29009KT P6SM VCSH SCT040 BKN080
      TEMPO 2907/2908 BKN015
     FM290800 29008KT P6SM OVC015
     FM291200 29011KT P6SM VCSH OVC008
     FM291500 30012G20KT P6SM VCSH OVC012
     FM292100 30014G22KT P6SM BKN025
     FM300200 30011KT P6SM BKN025=

USA.gov is the U.S. government's official web portal to all federal, state and local government web resources and services.